sensor_id;sensor_type;location;lat;lon;timestamp;temperature;humidity
66752;SHT31;53663;42.676;23.238;2023-04-09T00:00:36;6.48;84.19
66752;SHT31;53663;42.676;23.238;2023-04-09T00:03:01;6.53;84.26
66752;SHT31;53663;42.676;23.238;2023-04-09T00:05:27;6.56;83.81
66752;SHT31;53663;42.676;23.238;2023-04-09T00:07:53;6.47;84.18
66752;SHT31;53663;42.676;23.238;2023-04-09T00:10:18;6.37;85.33
66752;SHT31;53663;42.676;23.238;2023-04-09T00:12:44;6.53;85.00
66752;SHT31;53663;42.676;23.238;2023-04-09T00:15:10;6.48;84.44
66752;SHT31;53663;42.676;23.238;2023-04-09T00:17:35;6.53;84.13
66752;SHT31;53663;42.676;23.238;2023-04-09T00:20:01;6.51;84.57
66752;SHT31;53663;42.676;23.238;2023-04-09T00:22:27;6.37;84.97
66752;SHT31;53663;42.676;23.238;2023-04-09T00:24:52;6.37;85.35
66752;SHT31;53663;42.676;23.238;2023-04-09T00:27:18;6.51;84.92
66752;SHT31;53663;42.676;23.238;2023-04-09T00:29:43;6.57;84.62
66752;SHT31;53663;42.676;23.238;2023-04-09T00:32:09;6.67;84.57
66752;SHT31;53663;42.676;23.238;2023-04-09T00:34:34;6.71;84.74
66752;SHT31;53663;42.676;23.238;2023-04-09T00:37:00;6.76;84.41
66752;SHT31;53663;42.676;23.238;2023-04-09T00:39:26;6.76;84.26
66752;SHT31;53663;42.676;23.238;2023-04-09T00:41:59;6.76;84.68
66752;SHT31;53663;42.676;23.238;2023-04-09T00:44:26;6.83;84.46
66752;SHT31;53663;42.676;23.238;2023-04-09T00:46:53;6.81;84.08
66752;SHT31;53663;42.676;23.238;2023-04-09T00:49:18;6.70;84.26
66752;SHT31;53663;42.676;23.238;2023-04-09T00:51:45;6.61;84.40
66752;SHT31;53663;42.676;23.238;2023-04-09T00:54:11;6.66;84.29
66752;SHT31;53663;42.676;23.238;2023-04-09T00:56:37;6.61;84.39
66752;SHT31;53663;42.676;23.238;2023-04-09T00:59:03;6.66;84.00
66752;SHT31;53663;42.676;23.238;2023-04-09T01:01:29;6.63;84.12
66752;SHT31;53663;42.676;23.238;2023-04-09T01:03:54;6.70;84.51
66752;SHT31;53663;42.676;23.238;2023-04-09T01:14:39;6.61;84.84
66752;SHT31;53663;42.676;23.238;2023-04-09T01:17:19;6.41;84.46
66752;SHT31;53663;42.676;23.238;2023-04-09T01:20:01;6.20;85.41
66752;SHT31;53663;42.676;23.238;2023-04-09T01:22:44;5.88;86.53
66752;SHT31;53663;42.676;23.238;2023-04-09T01:28:16;5.71;87.07
66752;SHT31;53663;42.676;23.238;2023-04-09T01:30:45;5.82;86.58
66752;SHT31;53663;42.676;23.238;2023-04-09T01:33:13;6.03;85.30
66752;SHT31;53663;42.676;23.238;2023-04-09T01:35:43;5.75;86.10
66752;SHT31;53663;42.676;23.238;2023-04-09T01:38:10;5.75;86.46
66752;SHT31;53663;42.676;23.238;2023-04-09T01:40:37;5.64;86.74
66752;SHT31;53663;42.676;23.238;2023-04-09T01:43:03;5.70;86.82
66752;SHT31;53663;42.676;23.238;2023-04-09T01:45:31;5.65;87.15
66752;SHT31;53663;42.676;23.238;2023-04-09T01:47:57;5.79;86.48
66752;SHT31;53663;42.676;23.238;2023-04-09T01:50:23;5.98;85.94
66752;SHT31;53663;42.676;23.238;2023-04-09T01:52:49;5.87;85.67
66752;SHT31;53663;42.676;23.238;2023-04-09T01:55:15;5.98;85.47
66752;SHT31;53663;42.676;23.238;2023-04-09T01:57:40;6.13;84.92
66752;SHT31;53663;42.676;23.238;2023-04-09T02:00:06;6.09;84.83
66752;SHT31;53663;42.676;23.238;2023-04-09T02:03:04;6.01;84.46
66752;SHT31;53663;42.676;23.238;2023-04-09T02:05:36;5.91;85.04
66752;SHT31;53663;42.676;23.238;2023-04-09T02:08:03;5.98;84.98
66752;SHT31;53663;42.676;23.238;2023-04-09T02:10:30;5.94;84.52
66752;SHT31;53663;42.676;23.238;2023-04-09T02:12:59;5.79;85.35
66752;SHT31;53663;42.676;23.238;2023-04-09T02:15:27;5.78;85.43
66752;SHT31;53663;42.676;23.238;2023-04-09T02:17:55;5.85;85.37
66752;SHT31;53663;42.676;23.238;2023-04-09T02:20:20;5.88;85.17
66752;SHT31;53663;42.676;23.238;2023-04-09T02:22:46;5.82;85.17
66752;SHT31;53663;42.676;23.238;2023-04-09T02:25:11;5.91;84.92
66752;SHT31;53663;42.676;23.238;2023-04-09T02:27:37;5.81;84.96
66752;SHT31;53663;42.676;23.238;2023-04-09T02:30:03;5.77;84.89
66752;SHT31;53663;42.676;23.238;2023-04-09T02:32:28;5.78;85.22
66752;SHT31;53663;42.676;23.238;2023-04-09T02:34:54;5.71;85.72
66752;SHT31;53663;42.676;23.238;2023-04-09T02:37:19;5.67;85.44
66752;SHT31;53663;42.676;23.238;2023-04-09T02:39:46;5.60;85.51
66752;SHT31;53663;42.676;23.238;2023-04-09T02:42:11;5.52;85.79
66752;SHT31;53663;42.676;23.238;2023-04-09T02:44:37;5.41;86.34
66752;SHT31;53663;42.676;23.238;2023-04-09T02:47:03;5.41;86.75
66752;SHT31;53663;42.676;23.238;2023-04-09T02:49:29;5.54;86.57
66752;SHT31;53663;42.676;23.238;2023-04-09T02:51:54;5.46;86.60
66752;SHT31;53663;42.676;23.238;2023-04-09T02:54:20;5.37;86.65
66752;SHT31;53663;42.676;23.238;2023-04-09T02:56:45;5.27;87.07
66752;SHT31;53663;42.676;23.238;2023-04-09T02:59:11;5.27;87.22
66752;SHT31;53663;42.676;23.238;2023-04-09T03:01:36;5.19;87.50
66752;SHT31;53663;42.676;23.238;2023-04-09T03:04:02;5.18;87.46
66752;SHT31;53663;42.676;23.238;2023-04-09T03:06:27;5.26;87.47
66752;SHT31;53663;42.676;23.238;2023-04-09T03:08:53;5.31;87.07
66752;SHT31;53663;42.676;23.238;2023-04-09T03:11:18;5.39;86.76
66752;SHT31;53663;42.676;23.238;2023-04-09T03:13:44;5.37;86.63
66752;SHT31;53663;42.676;23.238;2023-04-09T03:16:10;5.33;86.73
66752;SHT31;53663;42.676;23.238;2023-04-09T03:18:36;5.33;86.68
66752;SHT31;53663;42.676;23.238;2023-04-09T03:21:08;5.33;86.62
66752;SHT31;53663;42.676;23.238;2023-04-09T03:23:36;5.27;86.50
66752;SHT31;53663;42.676;23.238;2023-04-09T03:26:04;5.26;86.74
66752;SHT31;53663;42.676;23.238;2023-04-09T03:28:37;5.23;86.84
66752;SHT31;53663;42.676;23.238;2023-04-09T03:31:03;5.16;86.76
66752;SHT31;53663;42.676;23.238;2023-04-09T03:33:33;4.91;87.33
66752;SHT31;53663;42.676;23.238;2023-04-09T03:35:58;4.76;87.91
66752;SHT31;53663;42.676;23.238;2023-04-09T03:38:41;4.79;88.18
66752;SHT31;53663;42.676;23.238;2023-04-09T03:41:17;4.89;87.95
66752;SHT31;53663;42.676;23.238;2023-04-09T03:43:43;4.88;87.95
66752;SHT31;53663;42.676;23.238;2023-04-09T03:46:14;4.93;87.48
66752;SHT31;53663;42.676;23.238;2023-04-09T03:48:42;4.89;87.35
66752;SHT31;53663;42.676;23.238;2023-04-09T03:51:14;4.91;87.08
66752;SHT31;53663;42.676;23.238;2023-04-09T03:53:45;4.91;87.00
66752;SHT31;53663;42.676;23.238;2023-04-09T03:56:11;4.88;86.98
66752;SHT31;53663;42.676;23.238;2023-04-09T03:58:37;4.89;86.94
66752;SHT31;53663;42.676;23.238;2023-04-09T04:01:03;4.76;87.26
66752;SHT31;53663;42.676;23.238;2023-04-09T04:03:39;4.82;87.30
66752;SHT31;53663;42.676;23.238;2023-04-09T04:06:26;4.83;87.33
66752;SHT31;53663;42.676;23.238;2023-04-09T04:09:15;4.91;87.36
66752;SHT31;53663;42.676;23.238;2023-04-09T04:11:46;4.88;87.37
66752;SHT31;53663;42.676;23.238;2023-04-09T04:14:13;4.88;87.60
66752;SHT31;53663;42.676;23.238;2023-04-09T04:16:41;4.92;87.95
66752;SHT31;53663;42.676;23.238;2023-04-09T04:19:08;4.96;88.26
66752;SHT31;53663;42.676;23.238;2023-04-09T04:21:40;5.16;88.02
66752;SHT31;53663;42.676;23.238;2023-04-09T04:24:06;5.22;87.77
66752;SHT31;53663;42.676;23.238;2023-04-09T04:26:32;5.24;87.95
66752;SHT31;53663;42.676;23.238;2023-04-09T04:28:57;5.41;87.61
66752;SHT31;53663;42.676;23.238;2023-04-09T04:31:52;5.46;87.42
66752;SHT31;53663;42.676;23.238;2023-04-09T04:34:21;5.60;87.07
66752;SHT31;53663;42.676;23.238;2023-04-09T04:36:55;5.71;86.59
66752;SHT31;53663;42.676;23.238;2023-04-09T04:39:21;5.81;86.33
66752;SHT31;53663;42.676;23.238;2023-04-09T04:42:09;5.92;86.16
66752;SHT31;53663;42.676;23.238;2023-04-09T04:44:35;6.08;85.13
66752;SHT31;53663;42.676;23.238;2023-04-09T04:47:13;6.20;85.10
66752;SHT31;53663;42.676;23.238;2023-04-09T04:49:38;6.46;84.57
66752;SHT31;53663;42.676;23.238;2023-04-09T04:52:05;6.88;83.65
66752;SHT31;53663;42.676;23.238;2023-04-09T04:54:32;7.32;81.99
66752;SHT31;53663;42.676;23.238;2023-04-09T04:56:58;7.63;80.19
66752;SHT31;53663;42.676;23.238;2023-04-09T04:59:38;7.67;79.96
66752;SHT31;53663;42.676;23.238;2023-04-09T05:02:06;8.06;77.90
66752;SHT31;53663;42.676;23.238;2023-04-09T05:04:42;8.32;76.93
66752;SHT31;53663;42.676;23.238;2023-04-09T05:07:11;8.21;76.17
66752;SHT31;53663;42.676;23.238;2023-04-09T05:09:44;7.97;77.86
66752;SHT31;53663;42.676;23.238;2023-04-09T05:12:10;8.38;76.55
66752;SHT31;53663;42.676;23.238;2023-04-09T05:14:36;8.53;76.27
66752;SHT31;53663;42.676;23.238;2023-04-09T05:17:01;8.56;75.78
66752;SHT31;53663;42.676;23.238;2023-04-09T05:19:37;8.52;76.50
66752;SHT31;53663;42.676;23.238;2023-04-09T05:22:03;8.50;75.43
66752;SHT31;53663;42.676;23.238;2023-04-09T05:24:28;8.52;75.30
66752;SHT31;53663;42.676;23.238;2023-04-09T05:26:54;8.53;74.79
66752;SHT31;53663;42.676;23.238;2023-04-09T05:29:20;8.42;75.06
66752;SHT31;53663;42.676;23.238;2023-04-09T05:31:46;8.31;74.22
66752;SHT31;53663;42.676;23.238;2023-04-09T05:34:22;8.54;74.74
66752;SHT31;53663;42.676;23.238;2023-04-09T05:36:52;8.72;74.37
66752;SHT31;53663;42.676;23.238;2023-04-09T05:39:20;8.64;72.75
66752;SHT31;53663;42.676;23.238;2023-04-09T05:41:45;8.50;73.77
66752;SHT31;53663;42.676;23.238;2023-04-09T05:44:27;8.38;74.69
66752;SHT31;53663;42.676;23.238;2023-04-09T05:46:59;8.84;73.86
66752;SHT31;53663;42.676;23.238;2023-04-09T05:49:31;9.68;71.73
66752;SHT31;53663;42.676;23.238;2023-04-09T05:51:57;10.30;68.48
66752;SHT31;53663;42.676;23.238;2023-04-09T05:54:26;10.34;67.44
66752;SHT31;53663;42.676;23.238;2023-04-09T05:56:51;9.90;69.45
66752;SHT31;53663;42.676;23.238;2023-04-09T05:59:17;10.07;68.92
66752;SHT31;53663;42.676;23.238;2023-04-09T06:01:43;10.62;66.76
66752;SHT31;53663;42.676;23.238;2023-04-09T06:04:08;11.14;65.07
66752;SHT31;53663;42.676;23.238;2023-04-09T06:06:37;11.72;63.15
66752;SHT31;53663;42.676;23.238;2023-04-09T06:09:03;11.30;62.99
66752;SHT31;53663;42.676;23.238;2023-04-09T06:11:30;11.36;63.77
66752;SHT31;53663;42.676;23.238;2023-04-09T06:13:56;12.03;62.18
66752;SHT31;53663;42.676;23.238;2023-04-09T06:16:21;12.50;60.17
66752;SHT31;53663;42.676;23.238;2023-04-09T06:18:47;13.71;56.81
66752;SHT31;53663;42.676;23.238;2023-04-09T06:21:15;14.32;53.43
66752;SHT31;53663;42.676;23.238;2023-04-09T06:23:42;13.65;54.73
66752;SHT31;53663;42.676;23.238;2023-04-09T06:26:07;14.83;52.26
66752;SHT31;53663;42.676;23.238;2023-04-09T06:28:33;15.02;50.89
66752;SHT31;53663;42.676;23.238;2023-04-09T06:30:58;13.77;52.84
66752;SHT31;53663;42.676;23.238;2023-04-09T06:33:24;14.01;53.66
66752;SHT31;53663;42.676;23.238;2023-04-09T06:35:50;13.93;53.94
66752;SHT31;53663;42.676;23.238;2023-04-09T06:38:16;14.55;51.69
66752;SHT31;53663;42.676;23.238;2023-04-09T06:40:42;14.58;50.55
66752;SHT31;53663;42.676;23.238;2023-04-09T06:43:08;14.92;50.79
66752;SHT31;53663;42.676;23.238;2023-04-09T06:45:50;15.42;47.65
66752;SHT31;53663;42.676;23.238;2023-04-09T06:48:16;16.26;46.48
66752;SHT31;53663;42.676;23.238;2023-04-09T06:50:43;15.86;47.60
66752;SHT31;53663;42.676;23.238;2023-04-09T06:53:08;15.50;47.07
66752;SHT31;53663;42.676;23.238;2023-04-09T06:55:34;15.38;46.60
66752;SHT31;53663;42.676;23.238;2023-04-09T06:57:59;15.13;48.57
66752;SHT31;53663;42.676;23.238;2023-04-09T07:00:26;15.41;46.99
66752;SHT31;53663;42.676;23.238;2023-04-09T07:02:52;15.47;46.08
66752;SHT31;53663;42.676;23.238;2023-04-09T07:05:18;16.08;45.31
66752;SHT31;53663;42.676;23.238;2023-04-09T07:07:44;16.57;43.28
66752;SHT31;53663;42.676;23.238;2023-04-09T07:10:09;16.48;44.73
66752;SHT31;53663;42.676;23.238;2023-04-09T07:12:35;15.52;46.66
66752;SHT31;53663;42.676;23.238;2023-04-09T07:15:03;14.93;47.49
66752;SHT31;53663;42.676;23.238;2023-04-09T07:17:30;15.13;47.60
66752;SHT31;53663;42.676;23.238;2023-04-09T07:19:56;14.00;48.65
66752;SHT31;53663;42.676;23.238;2023-04-09T07:22:22;14.18;49.57
66752;SHT31;53663;42.676;23.238;2023-04-09T07:24:48;14.51;49.05
66752;SHT31;53663;42.676;23.238;2023-04-09T07:27:27;14.38;48.39
66752;SHT31;53663;42.676;23.238;2023-04-09T07:29:56;14.56;46.99
66752;SHT31;53663;42.676;23.238;2023-04-09T07:32:23;15.16;47.23
66752;SHT31;53663;42.676;23.238;2023-04-09T07:34:52;15.06;46.19
66752;SHT31;53663;42.676;23.238;2023-04-09T07:37:18;16.10;45.65
66752;SHT31;53663;42.676;23.238;2023-04-09T07:39:43;15.65;45.54
66752;SHT31;53663;42.676;23.238;2023-04-09T07:42:09;14.66;47.05
66752;SHT31;53663;42.676;23.238;2023-04-09T07:44:35;14.97;47.24
66752;SHT31;53663;42.676;23.238;2023-04-09T07:47:05;15.81;46.12
66752;SHT31;53663;42.676;23.238;2023-04-09T07:49:31;17.26;41.47
66752;SHT31;53663;42.676;23.238;2023-04-09T07:51:58;18.00;39.77
66752;SHT31;53663;42.676;23.238;2023-04-09T07:54:24;18.33;39.25
66752;SHT31;53663;42.676;23.238;2023-04-09T07:56:50;18.00;40.29
66752;SHT31;53663;42.676;23.238;2023-04-09T07:59:16;17.30;42.72
66752;SHT31;53663;42.676;23.238;2023-04-09T08:01:42;17.08;41.32
66752;SHT31;53663;42.676;23.238;2023-04-09T08:04:09;16.60;42.35
66752;SHT31;53663;42.676;23.238;2023-04-09T08:06:35;17.32;41.42
66752;SHT31;53663;42.676;23.238;2023-04-09T08:09:01;16.36;43.30
66752;SHT31;53663;42.676;23.238;2023-04-09T08:11:26;16.77;44.09
66752;SHT31;53663;42.676;23.238;2023-04-09T08:13:52;15.02;44.76
66752;SHT31;53663;42.676;23.238;2023-04-09T08:16:18;15.85;45.38
66752;SHT31;53663;42.676;23.238;2023-04-09T08:18:46;15.75;44.24
66752;SHT31;53663;42.676;23.238;2023-04-09T08:21:11;15.34;45.40
66752;SHT31;53663;42.676;23.238;2023-04-09T08:23:37;14.99;45.63
66752;SHT31;53663;42.676;23.238;2023-04-09T08:26:02;15.02;45.70
66752;SHT31;53663;42.676;23.238;2023-04-09T08:28:28;15.40;45.31
66752;SHT31;53663;42.676;23.238;2023-04-09T08:30:54;14.48;47.54
66752;SHT31;53663;42.676;23.238;2023-04-09T08:33:19;15.19;45.77
66752;SHT31;53663;42.676;23.238;2023-04-09T08:35:45;14.97;45.50
66752;SHT31;53663;42.676;23.238;2023-04-09T08:38:10;14.62;46.98
66752;SHT31;53663;42.676;23.238;2023-04-09T08:40:36;14.20;46.46
66752;SHT31;53663;42.676;23.238;2023-04-09T08:43:04;13.66;48.31
66752;SHT31;53663;42.676;23.238;2023-04-09T08:45:33;14.20;48.68
66752;SHT31;53663;42.676;23.238;2023-04-09T08:48:01;14.05;49.03
66752;SHT31;53663;42.676;23.238;2023-04-09T08:50:31;14.59;47.68
66752;SHT31;53663;42.676;23.238;2023-04-09T08:53:01;14.32;47.57
66752;SHT31;53663;42.676;23.238;2023-04-09T08:55:27;13.93;50.10
66752;SHT31;53663;42.676;23.238;2023-04-09T08:57:53;13.26;50.96
66752;SHT31;53663;42.676;23.238;2023-04-09T09:00:18;12.26;52.74
66752;SHT31;53663;42.676;23.238;2023-04-09T09:03:03;12.43;54.26
66752;SHT31;53663;42.676;23.238;2023-04-09T09:05:40;12.65;53.57
66752;SHT31;53663;42.676;23.238;2023-04-09T09:08:11;12.61;53.50
66752;SHT31;53663;42.676;23.238;2023-04-09T09:10:43;12.74;53.56
66752;SHT31;53663;42.676;23.238;2023-04-09T09:13:25;12.50;52.79
66752;SHT31;53663;42.676;23.238;2023-04-09T09:16:10;13.25;52.21
66752;SHT31;53663;42.676;23.238;2023-04-09T09:18:41;12.63;52.36
66752;SHT31;53663;42.676;23.238;2023-04-09T09:23:36;11.91;54.96
66752;SHT31;53663;42.676;23.238;2023-04-09T09:26:31;11.72;55.95
66752;SHT31;53663;42.676;23.238;2023-04-09T09:28:56;11.81;55.89
66752;SHT31;53663;42.676;23.238;2023-04-09T09:31:25;12.49;53.70
66752;SHT31;53663;42.676;23.238;2023-04-09T09:33:51;12.97;52.31
66752;SHT31;53663;42.676;23.238;2023-04-09T09:36:33;12.98;51.66
66752;SHT31;53663;42.676;23.238;2023-04-09T09:39:01;13.11;50.44
66752;SHT31;53663;42.676;23.238;2023-04-09T09:41:29;12.19;51.92
66752;SHT31;53663;42.676;23.238;2023-04-09T09:43:55;11.89;54.28
66752;SHT31;53663;42.676;23.238;2023-04-09T09:46:21;11.60;53.91
66752;SHT31;53663;42.676;23.238;2023-04-09T09:48:47;11.27;55.59
66752;SHT31;53663;42.676;23.238;2023-04-09T09:51:14;11.41;54.90
66752;SHT31;53663;42.676;23.238;2023-04-09T09:53:43;11.20;55.69
66752;SHT31;53663;42.676;23.238;2023-04-09T09:56:21;11.09;55.20
66752;SHT31;53663;42.676;23.238;2023-04-09T09:59:25;11.45;55.22
66752;SHT31;53663;42.676;23.238;2023-04-09T10:01:58;11.45;54.18
66752;SHT31;53663;42.676;23.238;2023-04-09T10:04:27;11.40;53.72
66752;SHT31;53663;42.676;23.238;2023-04-09T10:06:54;10.91;54.72
66752;SHT31;53663;42.676;23.238;2023-04-09T10:09:21;11.03;54.69
66752;SHT31;53663;42.676;23.238;2023-04-09T10:11:47;10.93;54.66
66752;SHT31;53663;42.676;23.238;2023-04-09T10:14:15;10.92;55.13
66752;SHT31;53663;42.676;23.238;2023-04-09T10:16:42;10.86;54.81
66752;SHT31;53663;42.676;23.238;2023-04-09T10:19:08;10.99;55.07
66752;SHT31;53663;42.676;23.238;2023-04-09T10:21:50;11.02;55.17
66752;SHT31;53663;42.676;23.238;2023-04-09T10:24:18;11.02;55.03
66752;SHT31;53663;42.676;23.238;2023-04-09T10:26:44;11.06;54.58
66752;SHT31;53663;42.676;23.238;2023-04-09T10:29:13;11.00;54.25
66752;SHT31;53663;42.676;23.238;2023-04-09T10:31:51;11.14;54.25
66752;SHT31;53663;42.676;23.238;2023-04-09T10:34:22;11.23;54.11
66752;SHT31;53663;42.676;23.238;2023-04-09T10:36:54;11.41;53.70
66752;SHT31;53663;42.676;23.238;2023-04-09T10:39:20;11.55;53.79
66752;SHT31;53663;42.676;23.238;2023-04-09T10:41:47;11.74;52.72
66752;SHT31;53663;42.676;23.238;2023-04-09T10:44:40;11.75;52.05
66752;SHT31;53663;42.676;23.238;2023-04-09T10:47:09;11.34;51.96
66752;SHT31;53663;42.676;23.238;2023-04-09T10:49:39;11.45;52.02
66752;SHT31;53663;42.676;23.238;2023-04-09T10:52:09;11.47;51.68
66752;SHT31;53663;42.676;23.238;2023-04-09T10:54:40;11.55;52.64
66752;SHT31;53663;42.676;23.238;2023-04-09T10:57:14;11.68;52.49
66752;SHT31;53663;42.676;23.238;2023-04-09T10:59:53;11.77;51.75
66752;SHT31;53663;42.676;23.238;2023-04-09T11:07:23;11.54;50.38
66752;SHT31;53663;42.676;23.238;2023-04-09T11:09:49;11.41;51.38
66752;SHT31;53663;42.676;23.238;2023-04-09T11:12:15;11.23;52.41
66752;SHT31;53663;42.676;23.238;2023-04-09T11:14:40;11.20;55.79
66752;SHT31;53663;42.676;23.238;2023-04-09T11:17:06;10.88;59.49
66752;SHT31;53663;42.676;23.238;2023-04-09T11:19:34;10.54;59.40
66752;SHT31;53663;42.676;23.238;2023-04-09T11:22:03;10.34;61.36
66752;SHT31;53663;42.676;23.238;2023-04-09T11:24:43;11.00;59.17
66752;SHT31;53663;42.676;23.238;2023-04-09T11:27:09;11.50;58.95
66752;SHT31;53663;42.676;23.238;2023-04-09T11:29:35;11.72;57.65
66752;SHT31;53663;42.676;23.238;2023-04-09T11:32:01;12.19;57.00
66752;SHT31;53663;42.676;23.238;2023-04-09T11:34:30;12.47;56.17
66752;SHT31;53663;42.676;23.238;2023-04-09T11:36:56;12.50;56.11
66752;SHT31;53663;42.676;23.238;2023-04-09T11:39:23;12.64;56.48
66752;SHT31;53663;42.676;23.238;2023-04-09T11:41:49;12.68;55.09
66752;SHT31;53663;42.676;23.238;2023-04-09T11:44:14;12.39;55.23
66752;SHT31;53663;42.676;23.238;2023-04-09T11:46:41;11.45;58.03
66752;SHT31;53663;42.676;23.238;2023-04-09T11:49:06;11.64;58.82
66752;SHT31;53663;42.676;23.238;2023-04-09T11:51:33;11.68;58.18
66752;SHT31;53663;42.676;23.238;2023-04-09T11:54:04;12.26;57.10
66752;SHT31;53663;42.676;23.238;2023-04-09T11:56:29;12.59;56.94
66752;SHT31;53663;42.676;23.238;2023-04-09T11:58:55;12.76;56.62
66752;SHT31;53663;42.676;23.238;2023-04-09T12:01:21;12.71;56.56
66752;SHT31;53663;42.676;23.238;2023-04-09T12:03:53;12.57;55.64
66752;SHT31;53663;42.676;23.238;2023-04-09T12:06:20;12.81;54.16
66752;SHT31;53663;42.676;23.238;2023-04-09T12:08:53;12.74;55.32
66752;SHT31;53663;42.676;23.238;2023-04-09T12:11:19;13.04;56.17
66752;SHT31;53663;42.676;23.238;2023-04-09T12:13:45;13.43;55.74
66752;SHT31;53663;42.676;23.238;2023-04-09T12:16:11;13.50;55.73
66752;SHT31;53663;42.676;23.238;2023-04-09T12:18:38;13.81;55.36
66752;SHT31;53663;42.676;23.238;2023-04-09T12:21:04;13.86;54.54
66752;SHT31;53663;42.676;23.238;2023-04-09T12:23:30;13.87;54.02
66752;SHT31;53663;42.676;23.238;2023-04-09T12:25:56;13.90;53.33
66752;SHT31;53663;42.676;23.238;2023-04-09T12:28:27;14.15;52.53
66752;SHT31;53663;42.676;23.238;2023-04-09T12:30:52;14.34;52.59
66752;SHT31;53663;42.676;23.238;2023-04-09T12:33:19;14.44;50.58
66752;SHT31;53663;42.676;23.238;2023-04-09T12:35:44;14.62;49.93
66752;SHT31;53663;42.676;23.238;2023-04-09T12:38:10;14.66;49.15
66752;SHT31;53663;42.676;23.238;2023-04-09T12:40:36;14.48;51.39
66752;SHT31;53663;42.676;23.238;2023-04-09T12:43:02;14.56;48.75
66752;SHT31;53663;42.676;23.238;2023-04-09T12:45:28;14.20;49.81
66752;SHT31;53663;42.676;23.238;2023-04-09T12:47:53;14.21;48.71
66752;SHT31;53663;42.676;23.238;2023-04-09T12:50:19;13.91;49.30
66752;SHT31;53663;42.676;23.238;2023-04-09T12:52:45;13.83;49.42
66752;SHT31;53663;42.676;23.238;2023-04-09T12:55:11;13.76;47.35
66752;SHT31;53663;42.676;23.238;2023-04-09T12:57:37;13.50;44.47
66752;SHT31;53663;42.676;23.238;2023-04-09T13:00:05;13.09;46.06
66752;SHT31;53663;42.676;23.238;2023-04-09T13:02:32;12.60;46.99
66752;SHT31;53663;42.676;23.238;2023-04-09T13:04:58;12.22;48.53
66752;SHT31;53663;42.676;23.238;2023-04-09T13:07:24;12.09;48.40
66752;SHT31;53663;42.676;23.238;2023-04-09T13:09:50;12.33;47.88
66752;SHT31;53663;42.676;23.238;2023-04-09T13:12:17;12.73;47.69
66752;SHT31;53663;42.676;23.238;2023-04-09T13:14:44;12.44;47.55
66752;SHT31;53663;42.676;23.238;2023-04-09T13:17:10;12.03;48.54
66752;SHT31;53663;42.676;23.238;2023-04-09T13:19:36;11.92;49.49
66752;SHT31;53663;42.676;23.238;2023-04-09T13:22:01;11.68;57.89
66752;SHT31;53663;42.676;23.238;2023-04-09T13:24:27;11.78;52.67
66752;SHT31;53663;42.676;23.238;2023-04-09T13:26:53;11.36;61.25
66752;SHT31;53663;42.676;23.238;2023-04-09T13:29:18;10.95;64.71
66752;SHT31;53663;42.676;23.238;2023-04-09T13:31:44;10.99;65.07
66752;SHT31;53663;42.676;23.238;2023-04-09T13:34:09;10.92;64.19
66752;SHT31;53663;42.676;23.238;2023-04-09T13:36:35;11.38;55.65
66752;SHT31;53663;42.676;23.238;2023-04-09T13:39:01;11.70;59.27
66752;SHT31;53663;42.676;23.238;2023-04-09T13:41:34;11.51;59.94
66752;SHT31;53663;42.676;23.238;2023-04-09T13:44:01;11.34;60.62
66752;SHT31;53663;42.676;23.238;2023-04-09T13:46:27;11.72;59.45
66752;SHT31;53663;42.676;23.238;2023-04-09T13:48:53;12.01;58.05
66752;SHT31;53663;42.676;23.238;2023-04-09T13:51:22;11.85;51.45
66752;SHT31;53663;42.676;23.238;2023-04-09T13:53:48;12.13;50.75
66752;SHT31;53663;42.676;23.238;2023-04-09T13:56:14;12.46;50.24
66752;SHT31;53663;42.676;23.238;2023-04-09T13:58:40;12.60;49.81
66752;SHT31;53663;42.676;23.238;2023-04-09T14:01:07;12.74;56.77
66752;SHT31;53663;42.676;23.238;2023-04-09T14:03:33;12.68;60.98
66752;SHT31;53663;42.676;23.238;2023-04-09T14:05:58;12.56;62.37
66752;SHT31;53663;42.676;23.238;2023-04-09T14:08:24;12.40;63.01
66752;SHT31;53663;42.676;23.238;2023-04-09T14:10:49;12.30;63.89
66752;SHT31;53663;42.676;23.238;2023-04-09T14:13:15;12.30;64.90
66752;SHT31;53663;42.676;23.238;2023-04-09T14:15:40;12.12;64.85
66752;SHT31;53663;42.676;23.238;2023-04-09T14:18:06;11.92;66.88
66752;SHT31;53663;42.676;23.238;2023-04-09T14:20:33;11.70;67.55
66752;SHT31;53663;42.676;23.238;2023-04-09T14:22:59;11.55;68.58
66752;SHT31;53663;42.676;23.238;2023-04-09T14:25:24;11.61;69.32
66752;SHT31;53663;42.676;23.238;2023-04-09T14:27:50;11.53;68.85
66752;SHT31;53663;42.676;23.238;2023-04-09T14:30:16;11.41;69.16
66752;SHT31;53663;42.676;23.238;2023-04-09T14:32:41;11.27;69.56
66752;SHT31;53663;42.676;23.238;2023-04-09T14:35:07;11.36;69.56
66752;SHT31;53663;42.676;23.238;2023-04-09T14:37:33;11.28;68.96
66752;SHT31;53663;42.676;23.238;2023-04-09T14:39:58;11.26;68.92
66752;SHT31;53663;42.676;23.238;2023-04-09T14:42:24;11.44;69.64
66752;SHT31;53663;42.676;23.238;2023-04-09T14:44:49;11.55;69.71
66752;SHT31;53663;42.676;23.238;2023-04-09T14:47:15;11.61;69.60
66752;SHT31;53663;42.676;23.238;2023-04-09T14:49:40;11.67;68.75
66752;SHT31;53663;42.676;23.238;2023-04-09T14:52:06;11.74;66.96
66752;SHT31;53663;42.676;23.238;2023-04-09T14:54:31;11.68;65.87
66752;SHT31;53663;42.676;23.238;2023-04-09T14:56:58;11.78;65.44
66752;SHT31;53663;42.676;23.238;2023-04-09T14:59:23;11.85;65.41
66752;SHT31;53663;42.676;23.238;2023-04-09T15:01:49;11.91;65.31
66752;SHT31;53663;42.676;23.238;2023-04-09T15:04:15;12.03;64.74
66752;SHT31;53663;42.676;23.238;2023-04-09T15:06:40;12.01;65.66
66752;SHT31;53663;42.676;23.238;2023-04-09T15:09:06;11.75;66.00
66752;SHT31;53663;42.676;23.238;2023-04-09T15:11:32;11.85;66.95
66752;SHT31;53663;42.676;23.238;2023-04-09T15:13:57;12.03;65.81
66752;SHT31;53663;42.676;23.238;2023-04-09T15:16:26;11.98;65.27
66752;SHT31;53663;42.676;23.238;2023-04-09T15:18:53;12.01;65.29
66752;SHT31;53663;42.676;23.238;2023-04-09T15:21:20;11.98;64.91
66752;SHT31;53663;42.676;23.238;2023-04-09T15:23:46;11.85;65.31
66752;SHT31;53663;42.676;23.238;2023-04-09T15:26:14;11.78;65.96
66752;SHT31;53663;42.676;23.238;2023-04-09T15:28:39;11.53;66.81
66752;SHT31;53663;42.676;23.238;2023-04-09T15:31:05;11.33;66.81
66752;SHT31;53663;42.676;23.238;2023-04-09T15:33:30;11.31;66.16
66752;SHT31;53663;42.676;23.238;2023-04-09T15:35:57;11.05;67.36
66752;SHT31;53663;42.676;23.238;2023-04-09T15:38:23;11.02;67.14
66752;SHT31;53663;42.676;23.238;2023-04-09T15:40:50;10.89;68.18
66752;SHT31;53663;42.676;23.238;2023-04-09T15:43:15;10.79;69.49
66752;SHT31;53663;42.676;23.238;2023-04-09T15:45:42;10.96;69.97